Time;durP1;ratioP1;P1;durP2;ratioP2;P2;SDS_P1;SDS_P2;PMS_P1;PMS_P2;Temp;Humidity;BMP_temperature;BMP_pressure;BME280_temperature;BME280_humidity;BME280_pressure;Samples;Min_cycle;Max_cycle;Signal;HPM_P1;HPM_P2
2021/06/04 00:00:04;;;;;;;26.90;14.63;;;;;;;;;;5015048;28;20053;-59
2021/06/04 00:03:00;;;;;;;29.08;14.25;;;;;;;;;;5002745;28;20038;-60
2021/06/04 00:05:29;;;;;;;32.72;14.52;;;;;;;;;;5016050;28;20084;-60
2021/06/04 00:07:55;;;;;;;30.20;15.70;;;;;;;;;;5013736;28;20066;-60
2021/06/04 00:10:27;;;;;;;24.33;14.38;;;;;;;;;;5008184;28;20077;-59
2021/06/04 00:12:53;;;;;;;27.80;15.60;;;;;;;;;;5010059;28;20045;-59
2021/06/04 00:15:22;;;;;;;36.75;15.18;;;;;;;;;;5014437;28;20077;-60
2021/06/04 00:17:48;;;;;;;26.15;15.15;;;;;;;;;;5014334;28;20096;-59
2021/06/04 00:20:19;;;;;;;26.23;14.15;;;;;;;;;;5017699;28;20496;-59
2021/06/04 00:22:45;;;;;;;26.75;14.32;;;;;;;;;;5018165;28;20086;-60
2021/06/04 00:25:11;;;;;;;23.02;14.63;;;;;;;;;;5013955;28;20046;-59
2021/06/04 00:27:39;;;;;;;23.65;14.07;;;;;;;;;;5014371;28;20069;-60
2021/06/04 00:30:07;;;;;;;24.58;13.40;;;;;;;;;;5014661;28;20526;-59
2021/06/04 00:32:33;;;;;;;27.90;14.82;;;;;;;;;;5014750;28;20078;-59
2021/06/04 00:34:59;;;;;;;29.05;15.02;;;;;;;;;;5017267;28;20046;-59
2021/06/04 00:37:26;;;;;;;28.77;14.15;;;;;;;;;;5014559;28;20096;-59
2021/06/04 00:39:53;;;;;;;23.80;14.55;;;;;;;;;;5013931;28;20042;-60
2021/06/04 00:42:22;;;;;;;29.35;13.88;;;;;;;;;;5011551;28;20054;-59
2021/06/04 00:44:51;;;;;;;22.65;13.38;;;;;;;;;;5013903;28;20065;-59
2021/06/04 00:47:19;;;;;;;24.63;13.63;;;;;;;;;;5012771;28;20484;-59
2021/06/04 00:49:49;;;;;;;22.08;13.88;;;;;;;;;;5008002;28;20054;-60
2021/06/04 00:52:18;;;;;;;23.98;13.55;;;;;;;;;;5009334;28;20081;-60
2021/06/04 00:54:45;;;;;;;22.13;13.43;;;;;;;;;;5008334;28;20073;-59
2021/06/04 00:57:12;;;;;;;27.63;14.88;;;;;;;;;;5011273;28;20550;-59
2021/06/04 00:59:41;;;;;;;27.00;14.18;;;;;;;;;;4995093;28;20120;-60
2021/06/04 01:02:22;;;;;;;25.42;14.90;;;;;;;;;;5009687;28;20053;-59
2021/06/04 01:04:49;;;;;;;25.73;14.10;;;;;;;;;;5014987;28;20053;-60
2021/06/04 01:07:38;;;;;;;27.27;13.95;;;;;;;;;;5009437;28;20057;-60
2021/06/04 01:10:14;;;;;;;22.65;13.57;;;;;;;;;;5010249;28;20073;-60
2021/06/04 01:12:41;;;;;;;27.83;13.77;;;;;;;;;;5011289;28;20045;-59
2021/06/04 01:15:20;;;;;;;28.20;13.75;;;;;;;;;;5013020;28;20080;-60
2021/06/04 01:17:53;;;;;;;28.35;14.18;;;;;;;;;;5011722;28;20057;-59
2021/06/04 01:20:21;;;;;;;25.45;14.57;;;;;;;;;;5013441;28;20416;-60
2021/06/04 01:23:08;;;;;;;22.85;12.70;;;;;;;;;;5010830;28;20077;-59
2021/06/04 01:25:36;;;;;;;23.30;13.13;;;;;;;;;;4971844;28;20085;-59
2021/06/04 01:28:11;;;;;;;24.50;12.75;;;;;;;;;;4957621;28;20047;-60
2021/06/04 01:30:41;;;;;;;23.52;12.23;;;;;;;;;;4956205;28;20047;-60
2021/06/04 01:33:10;;;;;;;22.58;12.57;;;;;;;;;;4957411;28;20039;-59
2021/06/04 01:35:40;;;;;;;25.13;14.18;;;;;;;;;;4970624;28;20145;-59
2021/06/04 01:38:07;;;;;;;23.98;13.15;;;;;;;;;;4972903;28;20054;-60
2021/06/04 01:40:38;;;;;;;30.00;12.73;;;;;;;;;;4954029;28;20047;-59
2021/06/04 01:43:09;;;;;;;25.48;12.00;;;;;;;;;;4953912;28;20050;-60
2021/06/04 01:45:39;;;;;;;27.92;12.25;;;;;;;;;;4953758;28;20109;-59
2021/06/04 01:48:17;;;;;;;29.00;12.55;;;;;;;;;;4956210;28;20054;-59
2021/06/04 01:50:55;;;;;;;25.27;12.65;;;;;;;;;;4953561;28;20150;-59
2021/06/04 01:53:27;;;;;;;22.50;12.63;;;;;;;;;;4955427;28;20047;-60
2021/06/04 01:55:59;;;;;;;26.15;12.30;;;;;;;;;;4975809;28;20066;-60
2021/06/04 01:58:31;;;;;;;30.70;14.02;;;;;;;;;;4968903;28;20086;-60
2021/06/04 02:01:02;;;;;;;17.90;11.85;;;;;;;;;;4957128;28;20434;-59
2021/06/04 02:03:28;;;;;;;24.85;12.27;;;;;;;;;;4996612;28;20049;-59
2021/06/04 02:06:00;;;;;;;28.52;11.75;;;;;;;;;;5010200;28;20452;-59
2021/06/04 02:08:33;;;;;;;25.05;11.52;;;;;;;;;;4994783;28;20069;-60
2021/06/04 02:11:00;;;;;;;20.55;12.18;;;;;;;;;;5013096;28;20046;-59
2021/06/04 02:13:28;;;;;;;27.92;11.80;;;;;;;;;;5010127;28;20427;-60
2021/06/04 02:16:24;;;;;;;24.85;11.73;;;;;;;;;;5008452;28;20066;-60
2021/06/04 02:19:00;;;;;;;22.08;12.32;;;;;;;;;;4999740;28;20042;-59
2021/06/04 02:21:40;;;;;;;27.05;11.65;;;;;;;;;;5001017;28;20086;-60
2021/06/04 02:24:14;;;;;;;24.48;11.80;;;;;;;;;;5011632;28;20038;-59
2021/06/04 02:27:20;;;;;;;22.90;11.98;;;;;;;;;;5009774;28;20088;-60
2021/06/04 02:29:53;;;;;;;19.45;12.00;;;;;;;;;;4933973;29;20486;-59
2021/06/04 02:32:28;;;;;;;20.73;10.52;;;;;;;;;;4935704;29;20107;-59
2021/06/04 02:35:15;;;;;;;22.98;11.38;;;;;;;;;;4951241;29;20518;-59
2021/06/04 02:37:45;;;;;;;22.70;10.02;;;;;;;;;;4950432;29;20469;-59
2021/06/04 02:40:18;;;;;;;24.33;11.98;;;;;;;;;;4933012;29;20438;-59
2021/06/04 02:42:46;;;;;;;27.02;11.02;;;;;;;;;;4930692;29;20549;-59
2021/06/04 02:45:21;;;;;;;22.25;11.25;;;;;;;;;;4949294;29;20054;-59
2021/06/04 02:47:51;;;;;;;20.52;11.18;;;;;;;;;;4949129;29;20494;-59
2021/06/04 02:50:17;;;;;;;19.38;11.27;;;;;;;;;;4951819;29;20051;-59
2021/06/04 02:52:44;;;;;;;27.83;11.77;;;;;;;;;;4935761;29;20398;-59
2021/06/04 02:55:23;;;;;;;19.42;11.60;;;;;;;;;;4949170;29;20481;-59
2021/06/04 02:57:49;;;;;;;22.98;11.00;;;;;;;;;;4949123;29;20102;-59
2021/06/04 03:00:24;;;;;;;16.73;10.23;;;;;;;;;;4973902;28;20069;-60
2021/06/04 03:02:52;;;;;;;18.92;11.02;;;;;;;;;;5008378;28;20117;-59
2021/06/04 03:05:21;;;;;;;21.70;12.05;;;;;;;;;;5007798;28;20086;-60
2021/06/04 03:07:51;;;;;;;22.40;11.68;;;;;;;;;;5009572;28;20050;-59
2021/06/04 03:10:21;;;;;;;17.98;11.65;;;;;;;;;;5008214;28;20046;-60
2021/06/04 03:12:49;;;;;;;19.55;11.75;;;;;;;;;;5006310;28;20065;-60
2021/06/04 03:15:20;;;;;;;25.98;11.35;;;;;;;;;;5007489;28;20445;-60
2021/06/04 03:17:49;;;;;;;18.70;10.70;;;;;;;;;;5007539;28;20042;-60
2021/06/04 03:20:18;;;;;;;22.02;11.40;;;;;;;;;;5010108;28;20057;-60
2021/06/04 03:22:45;;;;;;;24.90;12.18;;;;;;;;;;5023616;28;20046;-59
2021/06/04 03:25:15;;;;;;;19.85;11.15;;;;;;;;;;5003834;28;20400;-60
2021/06/04 03:27:42;;;;;;;26.73;12.13;;;;;;;;;;5012941;28;20042;-59
2021/06/04 03:30:14;;;;;;;16.63;10.40;;;;;;;;;;4998897;28;20464;-60
2021/06/04 03:32:40;;;;;;;23.20;11.70;;;;;;;;;;5007661;28;20119;-60
2021/06/04 03:35:09;;;;;;;19.80;11.93;;;;;;;;;;5010707;28;20050;-59
2021/06/04 03:37:36;;;;;;;22.60;11.27;;;;;;;;;;5004887;28;20046;-60
2021/06/04 03:40:06;;;;;;;19.27;11.98;;;;;;;;;;5008826;28;20069;-60
2021/06/04 03:42:34;;;;;;;19.70;11.52;;;;;;;;;;5008652;28;20518;-60
2021/06/04 03:45:01;;;;;;;21.13;11.63;;;;;;;;;;5009928;28;20121;-60
2021/06/04 03:47:29;;;;;;;18.00;11.40;;;;;;;;;;5008939;28;20054;-60
2021/06/04 03:49:56;;;;;;;19.83;12.18;;;;;;;;;;5002849;28;20085;-60
2021/06/04 03:52:23;;;;;;;21.73;12.68;;;;;;;;;;5007342;28;20531;-60
2021/06/04 03:54:50;;;;;;;19.73;11.93;;;;;;;;;;5008490;28;20050;-60
2021/06/04 03:57:20;;;;;;;24.10;12.10;;;;;;;;;;5008855;28;20085;-60
2021/06/04 03:59:47;;;;;;;22.42;12.35;;;;;;;;;;5009704;28;20038;-60
2021/06/04 04:02:15;;;;;;;19.52;11.90;;;;;;;;;;5011086;28;20096;-60
2021/06/04 04:04:42;;;;;;;21.33;12.32;;;;;;;;;;5010990;28;20412;-60
2021/06/04 04:07:09;;;;;;;23.20;11.75;;;;;;;;;;5008339;28;20073;-60
2021/06/04 04:09:36;;;;;;;21.83;11.07;;;;;;;;;;5009999;28;20449;-60
2021/06/04 04:12:03;;;;;;;21.92;11.77;;;;;;;;;;5008315;28;20078;-60
2021/06/04 04:14:33;;;;;;;20.00;11.60;;;;;;;;;;5008192;28;20505;-60
2021/06/04 04:16:59;;;;;;;19.38;11.98;;;;;;;;;;5010476;28;20042;-60
2021/06/04 04:19:25;;;;;;;24.83;12.75;;;;;;;;;;5006904;28;20483;-60
2021/06/04 04:21:55;;;;;;;17.90;11.20;;;;;;;;;;5013091;28;20046;-60
2021/06/04 04:24:29;;;;;;;21.55;11.32;;;;;;;;;;5017347;28;20078;-60
2021/06/04 04:26:56;;;;;;;20.23;11.50;;;;;;;;;;5009683;28;20054;-60
2021/06/04 04:29:22;;;;;;;18.02;11.65;;;;;;;;;;5011336;28;20057;-59
2021/06/04 04:31:52;;;;;;;21.42;11.32;;;;;;;;;;5013474;28;20411;-60
2021/06/04 04:34:19;;;;;;;20.67;11.60;;;;;;;;;;5006465;28;20077;-60
2021/06/04 04:36:47;;;;;;;17.17;10.65;;;;;;;;;;5006469;28;20583;-60
2021/06/04 04:39:15;;;;;;;15.85;10.73;;;;;;;;;;5006795;28;20054;-59
2021/06/04 04:41:42;;;;;;;15.75;10.02;;;;;;;;;;5012238;28;20081;-60
2021/06/04 04:44:08;;;;;;;22.02;10.50;;;;;;;;;;5011356;28;20054;-61
2021/06/04 04:46:35;;;;;;;16.27;9.63;;;;;;;;;;5006416;28;20050;-59
2021/06/04 04:49:01;;;;;;;17.65;9.52;;;;;;;;;;5010250;28;20077;-60
2021/06/04 04:51:28;;;;;;;14.65;10.13;;;;;;;;;;5006645;28;20093;-61
2021/06/04 04:53:54;;;;;;;19.67;10.45;;;;;;;;;;5010300;28;20053;-60
2021/06/04 04:56:22;;;;;;;15.05;9.85;;;;;;;;;;5005775;28;20065;-60
2021/06/04 04:58:48;;;;;;;22.33;11.40;;;;;;;;;;5008294;28;20111;-60
2021/06/04 05:01:15;;;;;;;18.73;11.13;;;;;;;;;;5005197;28;20046;-60
2021/06/04 05:03:41;;;;;;;16.55;11.20;;;;;;;;;;5005929;28;20081;-60
2021/06/04 05:06:08;;;;;;;18.20;10.65;;;;;;;;;;5006442;28;20046;-60
2021/06/04 05:08:35;;;;;;;20.23;11.10;;;;;;;;;;5010914;28;20046;-60
2021/06/04 05:11:02;;;;;;;15.52;9.95;;;;;;;;;;5007942;28;20077;-61
2021/06/04 05:13:29;;;;;;;14.60;9.45;;;;;;;;;;5009216;28;20045;-61
2021/06/04 05:15:55;;;;;;;19.42;9.60;;;;;;;;;;5002526;28;20038;-61
2021/06/04 05:18:22;;;;;;;25.92;9.93;;;;;;;;;;4997583;28;20053;-61
2021/06/04 05:20:49;;;;;;;16.33;9.18;;;;;;;;;;5001230;28;20038;-61
2021/06/04 05:23:16;;;;;;;14.13;8.40;;;;;;;;;;5009763;28;20157;-61
2021/06/04 05:25:45;;;;;;;13.40;8.70;;;;;;;;;;5010586;28;20085;-61
2021/06/04 05:28:13;;;;;;;11.13;7.85;;;;;;;;;;5007239;28;20538;-61
2021/06/04 05:30:41;;;;;;;13.23;7.50;;;;;;;;;;5007284;28;20042;-61
2021/06/04 05:33:09;;;;;;;11.95;8.25;;;;;;;;;;5008513;28;20536;-61
2021/06/04 05:35:36;;;;;;;13.00;7.75;;;;;;;;;;4995059;28;20046;-61
2021/06/04 05:38:02;;;;;;;12.85;6.85;;;;;;;;;;4998639;28;20046;-61
2021/06/04 05:40:30;;;;;;;11.23;6.10;;;;;;;;;;4999250;28;20057;-61
2021/06/04 05:42:57;;;;;;;14.35;6.18;;;;;;;;;;4998895;28;20145;-61
2021/06/04 05:45:25;;;;;;;11.00;6.50;;;;;;;;;;5000332;28;20046;-61
2021/06/04 05:47:51;;;;;;;15.43;6.10;;;;;;;;;;5011791;28;20066;-61
2021/06/04 05:50:20;;;;;;;15.38;6.00;;;;;;;;;;5011750;28;20564;-61
2021/06/04 05:52:47;;;;;;;11.07;5.90;;;;;;;;;;5012459;28;20037;-61
2021/06/04 05:55:15;;;;;;;8.90;5.35;;;;;;;;;;5011131;28;20496;-61
2021/06/04 05:57:42;;;;;;;9.43;5.57;;;;;;;;;;5010466;28;20054;-61
2021/06/04 06:00:12;;;;;;;8.77;5.50;;;;;;;;;;5011461;28;20050;-61
2021/06/04 06:02:39;;;;;;;8.35;5.57;;;;;;;;;;5003700;28;20092;-61
2021/06/04 06:05:06;;;;;;;11.15;5.30;;;;;;;;;;5011367;28;20496;-61
2021/06/04 06:07:32;;;;;;;12.77;5.53;;;;;;;;;;5009151;28;20046;-61
2021/06/04 06:09:59;;;;;;;7.55;5.63;;;;;;;;;;5007564;28;20550;-61
2021/06/04 06:12:25;;;;;;;15.15;5.78;;;;;;;;;;5000235;28;20049;-61
2021/06/04 06:14:51;;;;;;;8.70;5.22;;;;;;;;;;5010437;28;20054;-62
2021/06/04 06:17:18;;;;;;;8.63;5.10;;;;;;;;;;5010132;28;20081;-61
2021/06/04 06:19:44;;;;;;;8.25;4.93;;;;;;;;;;5009182;28;20072;-61
2021/06/04 06:22:12;;;;;;;8.38;5.32;;;;;;;;;;5007335;28;20129;-61
2021/06/04 06:24:38;;;;;;;12.60;5.47;;;;;;;;;;5006840;28;20080;-61
2021/06/04 06:27:05;;;;;;;12.60;4.65;;;;;;;;;;5008720;28;20053;-61
2021/06/04 06:29:35;;;;;;;10.18;4.57;;;;;;;;;;5008010;28;20046;-62
2021/06/04 06:32:03;;;;;;;13.00;4.00;;;;;;;;;;5011895;28;20081;-61
2021/06/04 06:34:29;;;;;;;12.18;4.72;;;;;;;;;;5008842;28;20045;-61
2021/06/04 06:36:56;;;;;;;8.18;4.30;;;;;;;;;;5007619;28;20042;-61
2021/06/04 06:39:25;;;;;;;8.50;4.00;;;;;;;;;;5006506;28;20050;-62
2021/06/04 06:41:52;;;;;;;6.35;4.03;;;;;;;;;;5006852;28;20046;-62
2021/06/04 06:44:18;;;;;;;5.25;3.67;;;;;;;;;;5007951;28;20041;-61
2021/06/04 06:46:46;;;;;;;7.18;3.50;;;;;;;;;;5006335;28;20073;-61
2021/06/04 06:49:12;;;;;;;8.07;3.65;;;;;;;;;;5004060;28;20719;-62
2021/06/04 06:51:39;;;;;;;6.03;3.85;;;;;;;;;;5003675;28;20050;-62
2021/06/04 06:54:07;;;;;;;5.88;4.13;;;;;;;;;;4996409;28;20413;-62
2021/06/04 06:56:34;;;;;;;8.82;3.92;;;;;;;;;;4998975;28;20062;-61
2021/06/04 06:59:00;;;;;;;6.63;3.88;;;;;;;;;;5000574;28;20047;-61
2021/06/04 07:01:28;;;;;;;6.15;3.85;;;;;;;;;;4999776;28;20038;-62
2021/06/04 07:03:54;;;;;;;8.70;3.75;;;;;;;;;;5005340;28;20038;-61
2021/06/04 07:06:23;;;;;;;10.18;3.92;;;;;;;;;;5002403;28;20042;-62
2021/06/04 07:08:50;;;;;;;8.48;4.65;;;;;;;;;;4996326;28;20062;-62
2021/06/04 07:11:17;;;;;;;9.35;4.35;;;;;;;;;;5008879;28;20503;-62
2021/06/04 07:13:45;;;;;;;4.82;3.40;;;;;;;;;;5007047;28;20073;-61
2021/06/04 07:16:12;;;;;;;9.05;4.30;;;;;;;;;;5003719;28;20054;-62
2021/06/04 07:18:39;;;;;;;10.15;4.45;;;;;;;;;;5004911;28;20404;-62
2021/06/04 07:21:05;;;;;;;9.25;3.95;;;;;;;;;;4994323;28;20238;-62
2021/06/04 07:23:32;;;;;;;6.72;4.32;;;;;;;;;;5007894;28;20141;-61
2021/06/04 07:25:58;;;;;;;6.80;3.90;;;;;;;;;;5005480;28;20061;-61
2021/06/04 07:28:31;;;;;;;5.57;3.92;;;;;;;;;;5003601;28;20463;-62
2021/06/04 07:30:58;;;;;;;11.38;4.20;;;;;;;;;;5004131;28;20042;-62
2021/06/04 07:33:26;;;;;;;7.38;4.35;;;;;;;;;;5003442;28;20061;-62
2021/06/04 07:35:54;;;;;;;7.95;3.80;;;;;;;;;;5007231;28;20149;-61
2021/06/04 07:38:20;;;;;;;5.00;3.53;;;;;;;;;;4997178;28;20050;-62
2021/06/04 07:40:47;;;;;;;8.55;4.05;;;;;;;;;;5009450;28;20045;-62
2021/06/04 07:43:15;;;;;;;6.28;3.42;;;;;;;;;;5003184;28;20093;-62
2021/06/04 07:45:43;;;;;;;6.47;3.90;;;;;;;;;;5002249;28;20507;-62
2021/06/04 07:48:13;;;;;;;7.22;3.65;;;;;;;;;;5007382;28;20045;-60
2021/06/04 07:50:41;;;;;;;5.88;3.15;;;;;;;;;;4997772;28;20066;-61
2021/06/04 07:53:13;;;;;;;6.70;3.40;;;;;;;;;;5006224;28;20128;-62
2021/06/04 07:55:40;;;;;;;7.63;4.07;;;;;;;;;;5003716;28;20073;-62
2021/06/04 07:58:06;;;;;;;12.57;2.78;;;;;;;;;;5006710;28;20079;-61
2021/06/04 08:00:33;;;;;;;5.05;2.60;;;;;;;;;;5007600;28;20128;-62
2021/06/04 08:03:01;;;;;;;5.53;3.00;;;;;;;;;;4996278;28;20038;-62
2021/06/04 08:05:27;;;;;;;3.78;2.45;;;;;;;;;;4996097;28;20058;-62
2021/06/04 08:07:54;;;;;;;5.63;2.60;;;;;;;;;;4998667;28;20101;-61
2021/06/04 08:10:20;;;;;;;5.75;2.63;;;;;;;;;;5011171;28;20073;-61
2021/06/04 08:12:47;;;;;;;5.22;2.30;;;;;;;;;;5009591;28;20052;-62
2021/06/04 08:15:16;;;;;;;6.38;2.75;;;;;;;;;;5011490;28;20046;-62
2021/06/04 08:17:44;;;;;;;5.88;2.72;;;;;;;;;;4995917;28;20422;-62
2021/06/04 08:20:11;;;;;;;5.78;2.83;;;;;;;;;;4999315;28;20046;-62
2021/06/04 08:22:44;;;;;;;3.72;2.45;;;;;;;;;;5008960;28;20069;-62
2021/06/04 08:25:12;;;;;;;5.20;3.13;;;;;;;;;;5010886;28;20042;-62
2021/06/04 08:27:39;;;;;;;6.60;3.35;;;;;;;;;;5011294;28;20053;-62
2021/06/04 08:30:08;;;;;;;5.38;2.85;;;;;;;;;;5012032;28;20038;-62
2021/06/04 08:32:34;;;;;;;4.50;2.75;;;;;;;;;;5012206;28;20420;-62
2021/06/04 08:35:01;;;;;;;4.32;2.72;;;;;;;;;;5014841;28;20080;-61
2021/06/04 08:37:27;;;;;;;4.28;2.92;;;;;;;;;;5011208;28;20042;-62
2021/06/04 08:39:53;;;;;;;4.95;2.58;;;;;;;;;;5009228;28;20429;-62
2021/06/04 08:42:19;;;;;;;5.90;3.20;;;;;;;;;;5001063;28;20432;-62
2021/06/04 08:44:46;;;;;;;6.25;2.65;;;;;;;;;;5010767;28;20046;-62
2021/06/04 08:47:17;;;;;;;3.95;2.90;;;;;;;;;;5014068;28;20622;-62
2021/06/04 08:49:43;;;;;;;3.85;2.50;;;;;;;;;;5013731;28;20057;-62
2021/06/04 08:52:25;;;;;;;7.38;1.92;;;;;;;;;;5010784;28;20536;-62
2021/06/04 08:55:00;;;;;;;2.85;2.20;;;;;;;;;;5010879;28;20073;-62
2021/06/04 08:57:32;;;;;;;6.53;2.28;;;;;;;;;;5010690;28;20061;-62
2021/06/04 08:59:59;;;;;;;3.33;1.98;;;;;;;;;;5011269;28;20500;-62
2021/06/04 09:02:40;;;;;;;3.35;1.80;;;;;;;;;;5011882;28;20084;-62
2021/06/04 09:05:15;;;;;;;9.95;2.65;;;;;;;;;;5014017;28;20073;-62
2021/06/04 09:07:44;;;;;;;4.00;1.70;;;;;;;;;;5010928;28;20046;-62
2021/06/04 09:10:10;;;;;;;5.78;2.42;;;;;;;;;;5012028;28;20066;-62
2021/06/04 09:12:40;;;;;;;3.22;2.28;;;;;;;;;;5010567;28;20116;-62
2021/06/04 09:15:07;;;;;;;3.42;1.88;;;;;;;;;;5010427;28;20049;-62
2021/06/04 09:17:53;;;;;;;7.10;2.78;;;;;;;;;;5012085;28;20169;-62
2021/06/04 09:20:22;;;;;;;2.92;2.10;;;;;;;;;;5012924;28;20092;-62
2021/06/04 09:22:58;;;;;;;3.83;2.00;;;;;;;;;;5008772;28;20124;-62
2021/06/04 09:25:25;;;;;;;6.28;2.58;;;;;;;;;;5006116;28;20096;-62
2021/06/04 09:28:12;;;;;;;5.13;2.10;;;;;;;;;;5008946;28;20133;-62
2021/06/04 09:30:47;;;;;;;3.72;1.77;;;;;;;;;;5002882;28;20077;-62
2021/06/04 09:33:20;;;;;;;4.63;1.77;;;;;;;;;;5009949;28;20088;-62
2021/06/04 09:36:05;;;;;;;6.25;3.05;;;;;;;;;;4995016;28;20508;-62
2021/06/04 09:38:34;;;;;;;2.63;1.90;;;;;;;;;;5011130;28;20068;-62
2021/06/04 09:41:19;;;;;;;3.15;1.80;;;;;;;;;;5012581;28;20495;-62
2021/06/04 09:43:48;;;;;;;3.88;1.73;;;;;;;;;;5013951;28;20135;-62
2021/06/04 09:46:34;;;;;;;4.32;1.67;;;;;;;;;;5011595;28;20176;-63
2021/06/04 09:49:01;;;;;;;2.50;1.40;;;;;;;;;;5009565;28;20471;-62
2021/06/04 09:51:29;;;;;;;3.45;1.70;;;;;;;;;;5009931;28;20054;-63
2021/06/04 09:53:56;;;;;;;4.53;2.10;;;;;;;;;;5008717;28;20093;-63
2021/06/04 09:56:30;;;;;;;7.07;1.90;;;;;;;;;;5010494;28;20408;-62
2021/06/04 09:58:59;;;;;;;3.72;1.85;;;;;;;;;;5013859;28;20128;-63
2021/06/04 10:01:27;;;;;;;4.22;1.60;;;;;;;;;;5010108;28;20123;-63
2021/06/04 10:03:57;;;;;;;3.55;1.95;;;;;;;;;;5009868;28;20038;-63
2021/06/04 10:06:23;;;;;;;3.28;1.80;;;;;;;;;;5009543;28;20077;-63
2021/06/04 10:08:49;;;;;;;4.63;1.90;;;;;;;;;;5010024;28;20100;-63
2021/06/04 10:11:16;;;;;;;3.85;2.55;;;;;;;;;;5011229;28;20186;-62
2021/06/04 10:13:55;;;;;;;4.18;2.42;;;;;;;;;;5009123;28;20050;-63
2021/06/04 10:19:24;;;;;;;3.78;2.40;;;;;;;;;;5008909;28;20551;-63
2021/06/04 10:22:14;;;;;;;4.63;2.42;;;;;;;;;;5010373;28;20092;-63
2021/06/04 10:24:52;;;;;;;3.92;2.58;;;;;;;;;;5006118;28;20510;-63
2021/06/04 10:27:28;;;;;;;5.28;2.70;;;;;;;;;;5009610;28;20062;-63
2021/06/04 10:30:00;;;;;;;10.23;2.60;;;;;;;;;;5010712;28;20483;-63
2021/06/04 10:32:31;;;;;;;4.32;2.30;;;;;;;;;;5009812;28;20115;-63
2021/06/04 10:35:04;;;;;;;6.05;2.35;;;;;;;;;;5011552;28;20049;-63
2021/06/04 10:37:30;;;;;;;4.85;2.30;;;;;;;;;;5009216;28;20457;-63
2021/06/04 10:40:02;;;;;;;5.85;2.13;;;;;;;;;;5009021;28;20435;-63
2021/06/04 10:42:46;;;;;;;3.58;2.10;;;;;;;;;;5009759;28;20061;-63
2021/06/04 10:45:21;;;;;;;5.63;2.20;;;;;;;;;;5009107;28;20092;-62
2021/06/04 10:47:59;;;;;;;6.40;2.20;;;;;;;;;;4994145;28;20108;-62
2021/06/04 10:50:44;;;;;;;5.50;2.00;;;;;;;;;;5011158;28;20111;-63
2021/06/04 10:53:10;;;;;;;5.25;2.90;;;;;;;;;;5008617;28;20096;-63
2021/06/04 10:55:43;;;;;;;5.10;2.25;;;;;;;;;;5010379;28;20515;-63
2021/06/04 10:58:35;;;;;;;3.47;2.25;;;;;;;;;;5010945;28;20448;-63
2021/06/04 11:01:08;;;;;;;3.95;1.85;;;;;;;;;;5009171;28;20058;-63
2021/06/04 11:03:53;;;;;;;5.78;2.33;;;;;;;;;;5009547;28;20046;-63
2021/06/04 11:06:22;;;;;;;3.75;2.00;;;;;;;;;;5008912;28;20081;-63
2021/06/04 11:08:51;;;;;;;5.72;2.60;;;;;;;;;;5010235;28;20064;-62
2021/06/04 11:11:23;;;;;;;4.82;2.20;;;;;;;;;;5011840;28;20065;-62
2021/06/04 11:13:56;;;;;;;5.22;2.08;;;;;;;;;;5012774;28;20057;-63
2021/06/04 11:16:37;;;;;;;4.05;2.38;;;;;;;;;;5005911;28;20516;-62
2021/06/04 11:19:15;;;;;;;3.53;2.35;;;;;;;;;;5008223;28;20069;-62
2021/06/04 11:21:56;;;;;;;3.58;2.25;;;;;;;;;;5008735;28;20046;-62
2021/06/04 11:24:41;;;;;;;4.38;2.30;;;;;;;;;;5006103;28;20077;-62
2021/06/04 11:27:09;;;;;;;8.25;2.40;;;;;;;;;;5008779;28;20494;-63
2021/06/04 11:29:36;;;;;;;6.57;2.05;;;;;;;;;;5009984;28;20057;-63
2021/06/04 11:32:03;;;;;;;6.93;2.45;;;;;;;;;;5007532;28;20125;-63
2021/06/04 11:34:29;;;;;;;3.97;2.10;;;;;;;;;;5008970;28;20112;-63
2021/06/04 11:36:57;;;;;;;6.35;2.35;;;;;;;;;;5008788;28;20072;-63
2021/06/04 11:39:31;;;;;;;6.13;2.63;;;;;;;;;;5009833;28;20097;-63
2021/06/04 11:41:59;;;;;;;3.70;2.03;;;;;;;;;;5008623;28;20074;-63
2021/06/04 11:44:34;;;;;;;4.15;2.00;;;;;;;;;;5011415;28;20101;-63
2021/06/04 11:47:13;;;;;;;3.38;1.80;;;;;;;;;;5012209;28;20127;-63
2021/06/04 11:49:54;;;;;;;3.17;2.15;;;;;;;;;;5010697;28;20042;-63
2021/06/04 11:52:28;;;;;;;2.45;2.00;;;;;;;;;;5008590;28;20124;-63
2021/06/04 11:55:15;;;;;;;4.32;2.20;;;;;;;;;;5008347;28;20052;-63
2021/06/04 11:57:50;;;;;;;3.92;2.30;;;;;;;;;;5004869;28;20077;-63
2021/06/04 12:00:26;;;;;;;6.40;2.33;;;;;;;;;;5005936;28;20492;-63
2021/06/04 12:03:04;;;;;;;3.33;2.10;;;;;;;;;;5008944;28;20444;-63
2021/06/04 12:05:41;;;;;;;4.75;2.28;;;;;;;;;;5009938;28;20050;-63
2021/06/04 12:08:16;;;;;;;3.60;1.88;;;;;;;;;;5012390;28;20080;-63
2021/06/04 12:10:54;;;;;;;3.20;2.10;;;;;;;;;;5011875;28;20503;-63
2021/06/04 12:13:35;;;;;;;3.40;2.10;;;;;;;;;;5008224;28;20061;-63
2021/06/04 12:16:21;;;;;;;7.47;2.70;;;;;;;;;;5007961;28;20678;-63
2021/06/04 12:18:50;;;;;;;9.02;2.60;;;;;;;;;;5006841;28;20467;-63
2021/06/04 12:21:36;;;;;;;3.75;2.20;;;;;;;;;;4998695;28;20042;-63
2021/06/04 12:24:02;;;;;;;6.60;2.67;;;;;;;;;;5008783;28;20496;-63
2021/06/04 12:26:33;;;;;;;7.22;2.28;;;;;;;;;;5009306;28;20412;-62
2021/06/04 12:29:00;;;;;;;4.35;2.50;;;;;;;;;;5011944;28;20076;-62
2021/06/04 12:31:32;;;;;;;6.97;2.60;;;;;;;;;;5008584;28;20061;-62
2021/06/04 12:34:00;;;;;;;3.92;2.38;;;;;;;;;;5008443;28;20049;-62
2021/06/04 12:36:41;;;;;;;2.80;2.13;;;;;;;;;;5008002;28;20508;-62
2021/06/04 12:39:36;;;;;;;4.55;2.50;;;;;;;;;;5008602;28;20046;-62
2021/06/04 12:42:11;;;;;;;6.80;2.22;;;;;;;;;;4995970;28;20089;-62
2021/06/04 12:44:39;;;;;;;4.47;2.90;;;;;;;;;;5012628;28;20046;-62
2021/06/04 12:47:06;;;;;;;4.32;2.63;;;;;;;;;;5015201;28;20112;-62
2021/06/04 12:49:34;;;;;;;4.55;2.63;;;;;;;;;;5011817;28;20187;-62
2021/06/04 12:52:00;;;;;;;5.75;2.53;;;;;;;;;;5011897;28;20049;-62
2021/06/04 12:54:29;;;;;;;5.53;2.50;;;;;;;;;;5008921;28;20082;-62
2021/06/04 12:56:56;;;;;;;9.23;2.75;;;;;;;;;;5012288;28;20061;-63
2021/06/04 12:59:24;;;;;;;4.55;2.63;;;;;;;;;;5013857;28;20510;-63
2021/06/04 13:01:57;;;;;;;4.32;2.47;;;;;;;;;;5012629;28;20049;-62
2021/06/04 13:04:26;;;;;;;3.53;2.30;;;;;;;;;;5008630;28;20112;-63
2021/06/04 13:06:53;;;;;;;6.18;2.42;;;;;;;;;;5011346;28;20042;-63
2021/06/04 13:09:36;;;;;;;7.18;2.47;;;;;;;;;;5011153;28;20408;-63
2021/06/04 13:12:04;;;;;;;3.78;2.83;;;;;;;;;;5013422;28;20077;-63
2021/06/04 13:14:34;;;;;;;9.50;2.58;;;;;;;;;;5011814;28;20046;-63
2021/06/04 13:17:10;;;;;;;3.67;2.63;;;;;;;;;;5014613;28;20053;-63
2021/06/04 13:19:36;;;;;;;4.40;2.72;;;;;;;;;;5011104;28;20080;-63
2021/06/04 13:22:16;;;;;;;4.45;2.33;;;;;;;;;;5011149;28;20042;-63
2021/06/04 13:24:45;;;;;;;3.35;2.20;;;;;;;;;;5010880;28;20050;-63
2021/06/04 13:27:16;;;;;;;6.38;2.47;;;;;;;;;;5010949;28;20577;-63
2021/06/04 13:29:45;;;;;;;4.28;2.38;;;;;;;;;;4995714;28;20073;-63
2021/06/04 13:32:16;;;;;;;5.28;2.15;;;;;;;;;;5014516;28;20050;-63
2021/06/04 13:34:55;;;;;;;4.03;1.95;;;;;;;;;;5011663;28;20100;-63
2021/06/04 13:37:24;;;;;;;4.35;2.08;;;;;;;;;;5007954;28;20118;-63
2021/06/04 13:39:51;;;;;;;4.90;2.30;;;;;;;;;;5006370;28;20043;-63
2021/06/04 13:42:20;;;;;;;6.60;2.30;;;;;;;;;;5000532;28;20515;-63
2021/06/04 13:44:48;;;;;;;3.28;2.10;;;;;;;;;;5010785;28;20049;-63
2021/06/04 13:47:17;;;;;;;15.63;3.17;;;;;;;;;;5013705;28;20048;-63
2021/06/04 13:49:45;;;;;;;4.20;2.03;;;;;;;;;;5010589;28;20104;-64
2021/06/04 13:52:12;;;;;;;4.22;2.10;;;;;;;;;;5010041;28;20069;-63
2021/06/04 13:54:44;;;;;;;4.20;1.83;;;;;;;;;;5009984;28;20065;-63
2021/06/04 13:57:10;;;;;;;6.03;2.33;;;;;;;;;;5010292;28;20054;-63
2021/06/04 13:59:37;;;;;;;12.20;2.50;;;;;;;;;;5009938;28;20058;-61
2021/06/04 14:02:19;;;;;;;6.30;2.28;;;;;;;;;;5019683;28;20068;-62
2021/06/04 14:04:47;;;;;;;8.00;1.92;;;;;;;;;;5012613;28;20085;-63
2021/06/04 14:07:38;;;;;;;5.13;2.03;;;;;;;;;;5008694;28;20046;-63
2021/06/04 14:10:17;;;;;;;3.40;2.70;;;;;;;;;;5003882;28;20500;-63
2021/06/04 14:12:45;;;;;;;6.05;2.40;;;;;;;;;;5008207;28;20042;-64
2021/06/04 14:15:30;;;;;;;3.17;2.13;;;;;;;;;;5009918;28;20507;-64
2021/06/04 14:17:58;;;;;;;5.50;2.08;;;;;;;;;;5011924;28;20547;-64
2021/06/04 14:20:41;;;;;;;4.10;2.00;;;;;;;;;;5011807;28;20046;-63
2021/06/04 14:23:21;;;;;;;4.20;2.17;;;;;;;;;;5011536;28;20061;-63
2021/06/04 14:25:47;;;;;;;2.90;2.10;;;;;;;;;;5010496;28;20062;-64
2021/06/04 14:28:17;;;;;;;3.20;2.03;;;;;;;;;;5007317;28;20052;-63
2021/06/04 14:30:46;;;;;;;6.45;2.03;;;;;;;;;;5007387;28;20096;-63
2021/06/04 14:33:13;;;;;;;5.50;2.10;;;;;;;;;;5007540;28;20045;-63
2021/06/04 14:35:42;;;;;;;8.00;2.15;;;;;;;;;;5007844;28;20244;-63
2021/06/04 14:38:26;;;;;;;8.18;2.17;;;;;;;;;;5011998;28;20037;-63
2021/06/04 14:40:53;;;;;;;5.68;2.30;;;;;;;;;;5011445;28;20077;-63
2021/06/04 14:43:20;;;;;;;4.65;2.40;;;;;;;;;;5009966;28;20042;-63
2021/06/04 14:45:46;;;;;;;5.07;3.00;;;;;;;;;;5009828;28;20097;-62
2021/06/04 14:48:20;;;;;;;6.25;2.40;;;;;;;;;;5009930;28;20073;-63
2021/06/04 14:50:46;;;;;;;4.88;2.75;;;;;;;;;;4994858;28;20491;-62
2021/06/04 14:53:13;;;;;;;3.85;2.47;;;;;;;;;;5012118;28;20525;-62
2021/06/04 14:55:39;;;;;;;3.83;2.83;;;;;;;;;;5009846;28;20396;-62